sensor_id;sensor_type;location;lat;lon;timestamp;temperature;humidity
3406;DHT22;10008;48.682;9.016;2023-12-07T00:01:20;3.90;99.90
3406;DHT22;10008;48.682;9.016;2023-12-07T00:03:46;2.60;99.90
3406;DHT22;10008;48.682;9.016;2023-12-07T00:06:11;3.80;99.90
3406;DHT22;10008;48.682;9.016;2023-12-07T00:08:37;4.50;99.90
3406;DHT22;10008;48.682;9.016;2023-12-07T00:11:03;2.30;99.90
3406;DHT22;10008;48.682;9.016;2023-12-07T00:13:28;2.30;99.90
3406;DHT22;10008;48.682;9.016;2023-12-07T00:15:54;4.50;99.90
3406;DHT22;10008;48.682;9.016;2023-12-07T00:18:20;4.30;99.90
3406;DHT22;10008;48.682;9.016;2023-12-07T00:20:45;3.40;99.90
3406;DHT22;10008;48.682;9.016;2023-12-07T00:23:11;3.00;99.90
3406;DHT22;10008;48.682;9.016;2023-12-07T00:25:37;2.80;99.90
3406;DHT22;10008;48.682;9.016;2023-12-07T00:28:03;4.60;99.90
3406;DHT22;10008;48.682;9.016;2023-12-07T00:30:30;3.70;99.90
3406;DHT22;10008;48.682;9.016;2023-12-07T00:32:56;2.50;99.90
3406;DHT22;10008;48.682;9.016;2023-12-07T00:35:22;2.80;99.90
3406;DHT22;10008;48.682;9.016;2023-12-07T00:37:48;2.90;99.90
3406;DHT22;10008;48.682;9.016;2023-12-07T00:40:14;2.40;99.90
3406;DHT22;10008;48.682;9.016;2023-12-07T00:42:40;3.10;99.90
3406;DHT22;10008;48.682;9.016;2023-12-07T00:45:06;3.50;99.90
3406;DHT22;10008;48.682;9.016;2023-12-07T00:47:31;2.50;99.90
3406;DHT22;10008;48.682;9.016;2023-12-07T00:49:57;3.60;99.90
3406;DHT22;10008;48.682;9.016;2023-12-07T00:52:23;4.70;99.90
3406;DHT22;10008;48.682;9.016;2023-12-07T00:54:49;2.50;99.90
3406;DHT22;10008;48.682;9.016;2023-12-07T00:57:14;3.70;99.90
3406;DHT22;10008;48.682;9.016;2023-12-07T00:59:40;2.70;99.90
3406;DHT22;10008;48.682;9.016;2023-12-07T01:02:06;3.10;99.90
3406;DHT22;10008;48.682;9.016;2023-12-07T01:04:32;4.50;99.90
3406;DHT22;10008;48.682;9.016;2023-12-07T01:06:58;3.70;99.90
3406;DHT22;10008;48.682;9.016;2023-12-07T01:09:25;5.30;99.90
3406;DHT22;10008;48.682;9.016;2023-12-07T01:11:51;2.70;99.90
3406;DHT22;10008;48.682;9.016;2023-12-07T01:14:17;4.60;99.90
3406;DHT22;10008;48.682;9.016;2023-12-07T01:16:44;4.40;99.90
3406;DHT22;10008;48.682;9.016;2023-12-07T01:19:10;2.30;99.90
3406;DHT22;10008;48.682;9.016;2023-12-07T01:21:40;3.20;99.90
3406;DHT22;10008;48.682;9.016;2023-12-07T01:24:07;2.40;99.90
3406;DHT22;10008;48.682;9.016;2023-12-07T01:26:33;2.50;99.90
3406;DHT22;10008;48.682;9.016;2023-12-07T01:28:58;2.30;99.90
3406;DHT22;10008;48.682;9.016;2023-12-07T01:31:24;0.80;99.90
3406;DHT22;10008;48.682;9.016;2023-12-07T01:33:50;4.00;99.90
3406;DHT22;10008;48.682;9.016;2023-12-07T01:36:15;3.00;99.90
3406;DHT22;10008;48.682;9.016;2023-12-07T01:38:41;2.40;99.90
3406;DHT22;10008;48.682;9.016;2023-12-07T01:41:09;2.40;99.90
3406;DHT22;10008;48.682;9.016;2023-12-07T01:43:35;2.40;99.90
3406;DHT22;10008;48.682;9.016;2023-12-07T01:46:01;3.60;99.90
3406;DHT22;10008;48.682;9.016;2023-12-07T01:48:27;4.80;99.90
3406;DHT22;10008;48.682;9.016;2023-12-07T01:50:55;2.80;99.90
3406;DHT22;10008;48.682;9.016;2023-12-07T01:53:24;2.20;99.90
3406;DHT22;10008;48.682;9.016;2023-12-07T01:55:51;2.90;99.90
3406;DHT22;10008;48.682;9.016;2023-12-07T01:58:18;4.70;99.90
3406;DHT22;10008;48.682;9.016;2023-12-07T02:00:45;2.30;99.90
3406;DHT22;10008;48.682;9.016;2023-12-07T02:03:12;2.60;99.90
3406;DHT22;10008;48.682;9.016;2023-12-07T02:05:42;2.10;99.90
3406;DHT22;10008;48.682;9.016;2023-12-07T02:08:08;4.10;99.90
3406;DHT22;10008;48.682;9.016;2023-12-07T02:10:34;4.40;99.90
3406;DHT22;10008;48.682;9.016;2023-12-07T02:13:00;1.90;99.90
3406;DHT22;10008;48.682;9.016;2023-12-07T02:15:26;1.90;99.90
3406;DHT22;10008;48.682;9.016;2023-12-07T02:20:37;2.00;99.90
3406;DHT22;10008;48.682;9.016;2023-12-07T02:23:07;2.00;99.90
3406;DHT22;10008;48.682;9.016;2023-12-07T02:25:44;4.30;99.90
3406;DHT22;10008;48.682;9.016;2023-12-07T02:28:10;2.70;99.90
3406;DHT22;10008;48.682;9.016;2023-12-07T02:30:36;3.50;99.90
3406;DHT22;10008;48.682;9.016;2023-12-07T02:33:01;3.20;99.90
3406;DHT22;10008;48.682;9.016;2023-12-07T02:35:28;2.00;99.90
3406;DHT22;10008;48.682;9.016;2023-12-07T02:37:54;2.10;99.90
3406;DHT22;10008;48.682;9.016;2023-12-07T02:40:26;2.40;99.90
3406;DHT22;10008;48.682;9.016;2023-12-07T02:42:56;2.20;99.90
3406;DHT22;10008;48.682;9.016;2023-12-07T02:45:23;2.20;99.90
3406;DHT22;10008;48.682;9.016;2023-12-07T02:47:49;3.50;99.90
3406;DHT22;10008;48.682;9.016;2023-12-07T02:50:15;4.60;99.90
3406;DHT22;10008;48.682;9.016;2023-12-07T02:52:40;2.20;99.90
3406;DHT22;10008;48.682;9.016;2023-12-07T02:55:06;3.40;99.90
3406;DHT22;10008;48.682;9.016;2023-12-07T02:57:32;2.00;99.90
3406;DHT22;10008;48.682;9.016;2023-12-07T03:00:05;4.50;99.90
3406;DHT22;10008;48.682;9.016;2023-12-07T03:02:35;1.90;99.90
3406;DHT22;10008;48.682;9.016;2023-12-07T03:05:01;4.30;99.90
3406;DHT22;10008;48.682;9.016;2023-12-07T03:07:27;2.10;99.90
3406;DHT22;10008;48.682;9.016;2023-12-07T03:09:53;3.80;99.90
3406;DHT22;10008;48.682;9.016;2023-12-07T03:12:19;3.80;99.90
3406;DHT22;10008;48.682;9.016;2023-12-07T03:14:44;-0.40;99.90
3406;DHT22;10008;48.682;9.016;2023-12-07T03:17:10;4.30;99.90
3406;DHT22;10008;48.682;9.016;2023-12-07T03:19:39;3.00;99.90
3406;DHT22;10008;48.682;9.016;2023-12-07T03:22:06;1.70;99.90
3406;DHT22;10008;48.682;9.016;2023-12-07T03:24:35;2.30;99.90
3406;DHT22;10008;48.682;9.016;2023-12-07T03:27:01;2.70;99.90
3406;DHT22;10008;48.682;9.016;2023-12-07T03:29:27;1.50;99.90
3406;DHT22;10008;48.682;9.016;2023-12-07T03:31:53;4.00;99.90
3406;DHT22;10008;48.682;9.016;2023-12-07T03:34:18;3.00;99.90
3406;DHT22;10008;48.682;9.016;2023-12-07T03:36:48;1.50;99.90
3406;DHT22;10008;48.682;9.016;2023-12-07T03:39:17;3.20;99.90
3406;DHT22;10008;48.682;9.016;2023-12-07T03:41:48;2.90;99.90
3406;DHT22;10008;48.682;9.016;2023-12-07T03:44:14;1.50;99.90
3406;DHT22;10008;48.682;9.016;2023-12-07T03:46:40;1.50;99.90
3406;DHT22;10008;48.682;9.016;2023-12-07T03:49:06;1.40;99.90
3406;DHT22;10008;48.682;9.016;2023-12-07T03:51:31;1.20;99.90
3406;DHT22;10008;48.682;9.016;2023-12-07T03:53:57;1.20;99.90
3406;DHT22;10008;48.682;9.016;2023-12-07T03:56:27;2.80;99.90
3406;DHT22;10008;48.682;9.016;2023-12-07T03:58:54;1.30;99.90
3406;DHT22;10008;48.682;9.016;2023-12-07T04:01:23;1.10;99.90
3406;DHT22;10008;48.682;9.016;2023-12-07T04:03:54;1.10;99.90
3406;DHT22;10008;48.682;9.016;2023-12-07T04:06:20;1.30;99.90
3406;DHT22;10008;48.682;9.016;2023-12-07T04:08:46;1.20;99.90
3406;DHT22;10008;48.682;9.016;2023-12-07T04:11:13;3.70;99.90
3406;DHT22;10008;48.682;9.016;2023-12-07T04:13:39;0.90;99.90
3406;DHT22;10008;48.682;9.016;2023-12-07T04:16:07;2.30;99.90
3406;DHT22;10008;48.682;9.016;2023-12-07T04:18:33;0.90;99.90
3406;DHT22;10008;48.682;9.016;2023-12-07T04:20:58;1.10;99.90
3406;DHT22;10008;48.682;9.016;2023-12-07T04:23:25;2.20;99.90
3406;DHT22;10008;48.682;9.016;2023-12-07T04:25:51;3.30;99.90
3406;DHT22;10008;48.682;9.016;2023-12-07T04:28:17;2.10;99.90
3406;DHT22;10008;48.682;9.016;2023-12-07T04:30:43;2.80;99.90
3406;DHT22;10008;48.682;9.016;2023-12-07T04:33:08;2.90;99.90
3406;DHT22;10008;48.682;9.016;2023-12-07T04:35:34;1.50;99.90
3406;DHT22;10008;48.682;9.016;2023-12-07T04:38:00;0.30;99.90
3406;DHT22;10008;48.682;9.016;2023-12-07T04:40:26;2.50;99.90
3406;DHT22;10008;48.682;9.016;2023-12-07T04:42:52;0.30;99.90
3406;DHT22;10008;48.682;9.016;2023-12-07T04:45:18;1.70;99.90
3406;DHT22;10008;48.682;9.016;2023-12-07T04:47:44;0.40;99.90
3406;DHT22;10008;48.682;9.016;2023-12-07T04:50:10;2.70;99.90
3406;DHT22;10008;48.682;9.016;2023-12-07T04:52:36;0.40;99.90
3406;DHT22;10008;48.682;9.016;2023-12-07T04:55:02;2.60;99.90
3406;DHT22;10008;48.682;9.016;2023-12-07T04:57:28;0.30;99.90
3406;DHT22;10008;48.682;9.016;2023-12-07T04:59:54;0.30;99.90
3406;DHT22;10008;48.682;9.016;2023-12-07T05:02:19;0.30;99.90
3406;DHT22;10008;48.682;9.016;2023-12-07T05:04:45;2.80;99.90
3406;DHT22;10008;48.682;9.016;2023-12-07T05:07:12;0.30;99.90
3406;DHT22;10008;48.682;9.016;2023-12-07T05:09:38;1.10;99.90
3406;DHT22;10008;48.682;9.016;2023-12-07T05:12:05;1.30;99.90
3406;DHT22;10008;48.682;9.016;2023-12-07T05:14:31;0.50;99.90
3406;DHT22;10008;48.682;9.016;2023-12-07T05:16:57;0.40;99.90
3406;DHT22;10008;48.682;9.016;2023-12-07T05:19:23;2.40;99.90
3406;DHT22;10008;48.682;9.016;2023-12-07T05:21:50;0.20;99.90
3406;DHT22;10008;48.682;9.016;2023-12-07T05:24:15;0.10;99.90
3406;DHT22;10008;48.682;9.016;2023-12-07T05:26:42;0.10;99.90
3406;DHT22;10008;48.682;9.016;2023-12-07T05:29:08;1.60;99.90
3406;DHT22;10008;48.682;9.016;2023-12-07T05:31:34;0.00;99.90
3406;DHT22;10008;48.682;9.016;2023-12-07T05:34:00;1.00;99.90
3406;DHT22;10008;48.682;9.016;2023-12-07T05:36:26;0.00;99.90
3406;DHT22;10008;48.682;9.016;2023-12-07T05:38:52;2.20;99.90
3406;DHT22;10008;48.682;9.016;2023-12-07T05:41:18;2.10;99.90
3406;DHT22;10008;48.682;9.016;2023-12-07T05:43:44;-0.20;99.90
3406;DHT22;10008;48.682;9.016;2023-12-07T05:46:10;2.20;99.90
3406;DHT22;10008;48.682;9.016;2023-12-07T05:48:35;1.80;99.90
3406;DHT22;10008;48.682;9.016;2023-12-07T05:51:02;-0.30;99.90
3406;DHT22;10008;48.682;9.016;2023-12-07T05:53:28;-0.30;99.90
3406;DHT22;10008;48.682;9.016;2023-12-07T05:55:57;-0.40;99.90
3406;DHT22;10008;48.682;9.016;2023-12-07T05:58:22;-0.20;99.90
3406;DHT22;10008;48.682;9.016;2023-12-07T06:00:48;2.20;99.90
3406;DHT22;10008;48.682;9.016;2023-12-07T06:03:14;-0.10;99.90
3406;DHT22;10008;48.682;9.016;2023-12-07T06:05:41;-0.30;99.90
3406;DHT22;10008;48.682;9.016;2023-12-07T06:08:07;-0.30;99.90
3406;DHT22;10008;48.682;9.016;2023-12-07T06:10:33;-0.30;99.90
3406;DHT22;10008;48.682;9.016;2023-12-07T06:12:58;-0.30;99.90
3406;DHT22;10008;48.682;9.016;2023-12-07T06:15:26;-0.30;99.90
3406;DHT22;10008;48.682;9.016;2023-12-07T06:17:53;-0.20;99.90
3406;DHT22;10008;48.682;9.016;2023-12-07T06:20:19;-0.20;99.90
3406;DHT22;10008;48.682;9.016;2023-12-07T06:22:45;-0.20;99.90
3406;DHT22;10008;48.682;9.016;2023-12-07T06:25:11;2.60;99.90
3406;DHT22;10008;48.682;9.016;2023-12-07T06:27:38;-0.20;99.90
3406;DHT22;10008;48.682;9.016;2023-12-07T06:30:05;-0.30;99.90
3406;DHT22;10008;48.682;9.016;2023-12-07T06:32:31;-0.30;99.90
3406;DHT22;10008;48.682;9.016;2023-12-07T06:34:57;-0.40;99.90
3406;DHT22;10008;48.682;9.016;2023-12-07T06:37:23;2.10;99.90
3406;DHT22;10008;48.682;9.016;2023-12-07T06:39:49;1.80;99.90
3406;DHT22;10008;48.682;9.016;2023-12-07T06:42:15;0.90;99.90
3406;DHT22;10008;48.682;9.016;2023-12-07T06:44:42;-0.60;99.90
3406;DHT22;10008;48.682;9.016;2023-12-07T06:47:08;-0.50;99.90
3406;DHT22;10008;48.682;9.016;2023-12-07T06:49:35;-0.60;99.90
3406;DHT22;10008;48.682;9.016;2023-12-07T06:52:01;-0.60;99.90
3406;DHT22;10008;48.682;9.016;2023-12-07T06:54:27;-0.60;99.90
3406;DHT22;10008;48.682;9.016;2023-12-07T06:56:53;1.90;99.90
3406;DHT22;10008;48.682;9.016;2023-12-07T06:59:19;-0.40;99.90
3406;DHT22;10008;48.682;9.016;2023-12-07T07:01:45;-0.60;99.90
3406;DHT22;10008;48.682;9.016;2023-12-07T07:04:11;1.60;99.90
3406;DHT22;10008;48.682;9.016;2023-12-07T07:06:37;-0.50;99.90
3406;DHT22;10008;48.682;9.016;2023-12-07T07:09:03;-0.50;99.90
3406;DHT22;10008;48.682;9.016;2023-12-07T07:11:30;-0.50;99.90
3406;DHT22;10008;48.682;9.016;2023-12-07T07:13:56;-0.40;99.90
3406;DHT22;10008;48.682;9.016;2023-12-07T07:16:22;-0.40;99.90
3406;DHT22;10008;48.682;9.016;2023-12-07T07:18:47;-0.40;99.90
3406;DHT22;10008;48.682;9.016;2023-12-07T07:21:13;2.10;99.90
3406;DHT22;10008;48.682;9.016;2023-12-07T07:23:39;-0.50;99.90
3406;DHT22;10008;48.682;9.016;2023-12-07T07:26:05;-0.50;99.90
3406;DHT22;10008;48.682;9.016;2023-12-07T07:28:31;-0.50;99.90
3406;DHT22;10008;48.682;9.016;2023-12-07T07:30:56;-0.50;99.90
3406;DHT22;10008;48.682;9.016;2023-12-07T07:33:22;-0.60;99.90
3406;DHT22;10008;48.682;9.016;2023-12-07T07:35:48;-0.60;99.90
3406;DHT22;10008;48.682;9.016;2023-12-07T07:38:14;-0.40;99.90
3406;DHT22;10008;48.682;9.016;2023-12-07T07:40:40;-0.20;99.90
3406;DHT22;10008;48.682;9.016;2023-12-07T07:43:07;-0.20;99.90
3406;DHT22;10008;48.682;9.016;2023-12-07T07:45:33;1.10;99.90
3406;DHT22;10008;48.682;9.016;2023-12-07T07:47:59;-0.10;99.90
3406;DHT22;10008;48.682;9.016;2023-12-07T07:50:24;2.70;99.90
3406;DHT22;10008;48.682;9.016;2023-12-07T07:52:50;-0.10;99.90
3406;DHT22;10008;48.682;9.016;2023-12-07T07:55:16;-0.20;99.90
3406;DHT22;10008;48.682;9.016;2023-12-07T07:57:41;-0.30;99.90
3406;DHT22;10008;48.682;9.016;2023-12-07T08:00:08;-0.40;99.90
3406;DHT22;10008;48.682;9.016;2023-12-07T08:02:34;-0.30;99.90
3406;DHT22;10008;48.682;9.016;2023-12-07T08:05:02;2.10;99.90
3406;DHT22;10008;48.682;9.016;2023-12-07T08:07:27;-0.30;99.90
3406;DHT22;10008;48.682;9.016;2023-12-07T08:09:53;-0.30;99.90
3406;DHT22;10008;48.682;9.016;2023-12-07T08:12:19;-0.40;99.90
3406;DHT22;10008;48.682;9.016;2023-12-07T08:14:44;-0.30;99.90
3406;DHT22;10008;48.682;9.016;2023-12-07T08:17:11;1.50;99.90
3406;DHT22;10008;48.682;9.016;2023-12-07T08:19:37;2.40;99.90
3406;DHT22;10008;48.682;9.016;2023-12-07T08:22:06;-0.10;99.90
3406;DHT22;10008;48.682;9.016;2023-12-07T08:24:31;-0.10;99.90
3406;DHT22;10008;48.682;9.016;2023-12-07T08:26:57;-0.40;99.90
3406;DHT22;10008;48.682;9.016;2023-12-07T08:29:23;0.00;99.90
3406;DHT22;10008;48.682;9.016;2023-12-07T08:31:48;1.70;99.90
3406;DHT22;10008;48.682;9.016;2023-12-07T08:34:14;0.20;99.90
3406;DHT22;10008;48.682;9.016;2023-12-07T08:36:40;3.30;99.90
3406;DHT22;10008;48.682;9.016;2023-12-07T08:39:06;1.80;99.90
3406;DHT22;10008;48.682;9.016;2023-12-07T08:41:35;0.90;99.90
3406;DHT22;10008;48.682;9.016;2023-12-07T08:44:02;1.80;99.90
3406;DHT22;10008;48.682;9.016;2023-12-07T08:46:28;3.90;99.90
3406;DHT22;10008;48.682;9.016;2023-12-07T08:48:53;3.60;99.90
3406;DHT22;10008;48.682;9.016;2023-12-07T08:51:19;1.80;99.90
3406;DHT22;10008;48.682;9.016;2023-12-07T08:53:45;3.10;99.90
3406;DHT22;10008;48.682;9.016;2023-12-07T08:56:11;1.10;99.90
3406;DHT22;10008;48.682;9.016;2023-12-07T08:58:39;2.80;99.90
3406;DHT22;10008;48.682;9.016;2023-12-07T09:01:04;1.70;99.90
3406;DHT22;10008;48.682;9.016;2023-12-07T09:03:33;1.00;99.90
3406;DHT22;10008;48.682;9.016;2023-12-07T09:06:00;1.10;99.90
3406;DHT22;10008;48.682;9.016;2023-12-07T09:08:26;2.90;99.90
3406;DHT22;10008;48.682;9.016;2023-12-07T09:10:52;1.00;99.90
3406;DHT22;10008;48.682;9.016;2023-12-07T09:13:18;1.00;99.90
3406;DHT22;10008;48.682;9.016;2023-12-07T09:15:44;1.00;99.90
3406;DHT22;10008;48.682;9.016;2023-12-07T09:18:10;1.10;99.90
3406;DHT22;10008;48.682;9.016;2023-12-07T09:20:41;2.80;99.90
3406;DHT22;10008;48.682;9.016;2023-12-07T09:23:15;1.40;99.90
3406;DHT22;10008;48.682;9.016;2023-12-07T09:25:41;2.50;99.90
3406;DHT22;10008;48.682;9.016;2023-12-07T09:28:07;4.10;99.90
3406;DHT22;10008;48.682;9.016;2023-12-07T09:30:33;3.00;99.90
3406;DHT22;10008;48.682;9.016;2023-12-07T09:33:00;1.80;99.90
3406;DHT22;10008;48.682;9.016;2023-12-07T09:35:28;2.50;99.90
3406;DHT22;10008;48.682;9.016;2023-12-07T09:37:54;1.90;99.90
3406;DHT22;10008;48.682;9.016;2023-12-07T09:40:23;3.20;99.90
3406;DHT22;10008;48.682;9.016;2023-12-07T09:42:50;2.00;99.90
3406;DHT22;10008;48.682;9.016;2023-12-07T09:45:17;2.00;99.90
3406;DHT22;10008;48.682;9.016;2023-12-07T09:47:52;2.90;99.90
3406;DHT22;10008;48.682;9.016;2023-12-07T09:50:23;2.40;99.90
3406;DHT22;10008;48.682;9.016;2023-12-07T09:52:49;2.40;99.90
3406;DHT22;10008;48.682;9.016;2023-12-07T09:55:17;2.40;99.90
3406;DHT22;10008;48.682;9.016;2023-12-07T09:57:43;2.50;99.90
3406;DHT22;10008;48.682;9.016;2023-12-07T10:00:11;2.60;99.90
3406;DHT22;10008;48.682;9.016;2023-12-07T10:02:40;2.70;99.90
3406;DHT22;10008;48.682;9.016;2023-12-07T10:05:10;2.70;99.90
3406;DHT22;10008;48.682;9.016;2023-12-07T10:07:43;2.80;99.90
3406;DHT22;10008;48.682;9.016;2023-12-07T10:10:10;2.80;99.90
3406;DHT22;10008;48.682;9.016;2023-12-07T10:12:55;2.90;99.90
3406;DHT22;10008;48.682;9.016;2023-12-07T10:15:23;3.10;99.90
3406;DHT22;10008;48.682;9.016;2023-12-07T10:17:58;3.50;99.90
3406;DHT22;10008;48.682;9.016;2023-12-07T10:20:29;3.40;99.90
3406;DHT22;10008;48.682;9.016;2023-12-07T10:23:05;3.40;99.90
3406;DHT22;10008;48.682;9.016;2023-12-07T10:25:33;3.40;99.90
3406;DHT22;10008;48.682;9.016;2023-12-07T10:28:00;5.50;99.90
3406;DHT22;10008;48.682;9.016;2023-12-07T10:30:27;3.50;99.90
3406;DHT22;10008;48.682;9.016;2023-12-07T10:32:53;3.50;99.90
3406;DHT22;10008;48.682;9.016;2023-12-07T10:35:19;3.70;99.90
3406;DHT22;10008;48.682;9.016;2023-12-07T10:37:46;3.50;99.90
3406;DHT22;10008;48.682;9.016;2023-12-07T10:40:12;3.60;99.90
3406;DHT22;10008;48.682;9.016;2023-12-07T10:42:41;3.70;99.90
3406;DHT22;10008;48.682;9.016;2023-12-07T10:45:07;4.70;99.90
3406;DHT22;10008;48.682;9.016;2023-12-07T10:47:38;3.70;99.90
3406;DHT22;10008;48.682;9.016;2023-12-07T10:50:08;4.00;99.90
3406;DHT22;10008;48.682;9.016;2023-12-07T10:52:41;3.90;99.90
3406;DHT22;10008;48.682;9.016;2023-12-07T10:55:20;5.70;99.90
3406;DHT22;10008;48.682;9.016;2023-12-07T10:57:52;4.10;99.90
3406;DHT22;10008;48.682;9.016;2023-12-07T11:00:19;5.00;99.90
3406;DHT22;10008;48.682;9.016;2023-12-07T11:02:50;4.20;99.90
3406;DHT22;10008;48.682;9.016;2023-12-07T11:05:18;4.20;99.90
3406;DHT22;10008;48.682;9.016;2023-12-07T11:08:12;4.90;99.90
3406;DHT22;10008;48.682;9.016;2023-12-07T11:10:39;5.60;99.90
3406;DHT22;10008;48.682;9.016;2023-12-07T11:13:34;4.40;99.90
3406;DHT22;10008;48.682;9.016;2023-12-07T11:16:00;4.50;99.90
3406;DHT22;10008;48.682;9.016;2023-12-07T11:18:28;4.60;99.90
3406;DHT22;10008;48.682;9.016;2023-12-07T11:20:55;4.60;99.90
3406;DHT22;10008;48.682;9.016;2023-12-07T11:23:22;4.60;99.90
3406;DHT22;10008;48.682;9.016;2023-12-07T11:25:49;4.70;99.90
3406;DHT22;10008;48.682;9.016;2023-12-07T11:28:16;4.70;99.90
3406;DHT22;10008;48.682;9.016;2023-12-07T11:30:45;4.80;99.90
3406;DHT22;10008;48.682;9.016;2023-12-07T11:33:11;4.90;99.90
3406;DHT22;10008;48.682;9.016;2023-12-07T11:36:03;5.70;99.90
3406;DHT22;10008;48.682;9.016;2023-12-07T11:38:29;5.00;99.90
3406;DHT22;10008;48.682;9.016;2023-12-07T11:40:56;5.00;99.90
3406;DHT22;10008;48.682;9.016;2023-12-07T11:46:07;5.60;99.90
3406;DHT22;10008;48.682;9.016;2023-12-07T11:48:33;5.20;99.90
3406;DHT22;10008;48.682;9.016;2023-12-07T11:51:08;6.40;99.00
3406;DHT22;10008;48.682;9.016;2023-12-07T11:53:37;5.50;98.60
3406;DHT22;10008;48.682;9.016;2023-12-07T11:56:10;5.50;98.60
3406;DHT22;10008;48.682;9.016;2023-12-07T11:58:38;5.40;99.20
3406;DHT22;10008;48.682;9.016;2023-12-07T12:01:04;5.40;98.70
3406;DHT22;10008;48.682;9.016;2023-12-07T12:03:31;5.50;97.00
3406;DHT22;10008;48.682;9.016;2023-12-07T12:06:01;5.40;96.30
3406;DHT22;10008;48.682;9.016;2023-12-07T12:08:27;6.80;97.10
3406;DHT22;10008;48.682;9.016;2023-12-07T12:10:54;5.40;96.50
3406;DHT22;10008;48.682;9.016;2023-12-07T12:13:34;5.40;96.90
3406;DHT22;10008;48.682;9.016;2023-12-07T12:16:01;5.80;95.60
3406;DHT22;10008;48.682;9.016;2023-12-07T12:18:27;5.60;94.90
3406;DHT22;10008;48.682;9.016;2023-12-07T12:20:53;5.70;94.50
3406;DHT22;10008;48.682;9.016;2023-12-07T12:23:19;5.90;94.40
3406;DHT22;10008;48.682;9.016;2023-12-07T12:25:46;6.10;94.30
3406;DHT22;10008;48.682;9.016;2023-12-07T12:28:16;6.50;93.60
3406;DHT22;10008;48.682;9.016;2023-12-07T12:30:42;7.00;92.40
3406;DHT22;10008;48.682;9.016;2023-12-07T12:33:08;7.90;91.00
3406;DHT22;10008;48.682;9.016;2023-12-07T12:35:34;8.60;90.00
3406;DHT22;10008;48.682;9.016;2023-12-07T12:38:00;8.60;85.50
3406;DHT22;10008;48.682;9.016;2023-12-07T12:40:28;8.50;86.00
3406;DHT22;10008;48.682;9.016;2023-12-07T12:42:57;8.70;85.80
3406;DHT22;10008;48.682;9.016;2023-12-07T12:45:23;8.80;84.40
3406;DHT22;10008;48.682;9.016;2023-12-07T12:47:49;8.90;84.30
3406;DHT22;10008;48.682;9.016;2023-12-07T12:50:40;9.20;83.60
3406;DHT22;10008;48.682;9.016;2023-12-07T12:53:07;9.90;82.30
3406;DHT22;10008;48.682;9.016;2023-12-07T12:55:41;10.10;79.50
3406;DHT22;10008;48.682;9.016;2023-12-07T12:58:09;10.40;79.30
3406;DHT22;10008;48.682;9.016;2023-12-07T13:00:38;10.50;76.00
3406;DHT22;10008;48.682;9.016;2023-12-07T13:03:05;10.20;75.80
3406;DHT22;10008;48.682;9.016;2023-12-07T13:05:31;10.30;78.30
3406;DHT22;10008;48.682;9.016;2023-12-07T13:07:58;10.00;79.50
3406;DHT22;10008;48.682;9.016;2023-12-07T13:10:26;9.80;81.10
3406;DHT22;10008;48.682;9.016;2023-12-07T13:12:51;9.80;80.20
3406;DHT22;10008;48.682;9.016;2023-12-07T13:15:17;9.80;81.30
3406;DHT22;10008;48.682;9.016;2023-12-07T13:17:43;9.90;82.00
3406;DHT22;10008;48.682;9.016;2023-12-07T13:20:10;10.00;80.00
3406;DHT22;10008;48.682;9.016;2023-12-07T13:22:37;9.90;80.90
3406;DHT22;10008;48.682;9.016;2023-12-07T13:25:04;9.90;81.60
3406;DHT22;10008;48.682;9.016;2023-12-07T13:27:31;9.70;78.70
3406;DHT22;10008;48.682;9.016;2023-12-07T13:29:58;9.80;81.10
3406;DHT22;10008;48.682;9.016;2023-12-07T13:32:23;9.70;80.40
3406;DHT22;10008;48.682;9.016;2023-12-07T13:34:49;9.20;78.70
3406;DHT22;10008;48.682;9.016;2023-12-07T13:37:15;9.10;83.10
3406;DHT22;10008;48.682;9.016;2023-12-07T13:39:41;9.10;83.20
3406;DHT22;10008;48.682;9.016;2023-12-07T13:42:08;9.00;84.80
3406;DHT22;10008;48.682;9.016;2023-12-07T13:44:35;8.80;84.50
3406;DHT22;10008;48.682;9.016;2023-12-07T13:47:01;8.40;81.00
3406;DHT22;10008;48.682;9.016;2023-12-07T13:49:27;8.30;82.00
3406;DHT22;10008;48.682;9.016;2023-12-07T13:51:53;8.10;81.80
3406;DHT22;10008;48.682;9.016;2023-12-07T13:54:19;8.20;86.40
3406;DHT22;10008;48.682;9.016;2023-12-07T13:56:44;8.30;85.80
3406;DHT22;10008;48.682;9.016;2023-12-07T13:59:10;7.90;86.40
3406;DHT22;10008;48.682;9.016;2023-12-07T14:01:37;7.70;84.20
3406;DHT22;10008;48.682;9.016;2023-12-07T14:04:06;7.10;84.10
3406;DHT22;10008;48.682;9.016;2023-12-07T14:06:33;6.80;83.70
3406;DHT22;10008;48.682;9.016;2023-12-07T14:09:01;6.60;84.30
3406;DHT22;10008;48.682;9.016;2023-12-07T14:11:27;6.40;84.80
3406;DHT22;10008;48.682;9.016;2023-12-07T14:13:53;6.30;88.90
3406;DHT22;10008;48.682;9.016;2023-12-07T14:16:20;6.30;89.20
3406;DHT22;10008;48.682;9.016;2023-12-07T14:18:46;6.10;87.70
3406;DHT22;10008;48.682;9.016;2023-12-07T14:21:12;5.80;87.90
3406;DHT22;10008;48.682;9.016;2023-12-07T14:23:39;5.60;87.30
3406;DHT22;10008;48.682;9.016;2023-12-07T14:26:05;5.50;90.40
3406;DHT22;10008;48.682;9.016;2023-12-07T14:28:31;6.40;92.10
3406;DHT22;10008;48.682;9.016;2023-12-07T14:30:59;5.50;91.00
3406;DHT22;10008;48.682;9.016;2023-12-07T14:33:25;5.60;91.50
3406;DHT22;10008;48.682;9.016;2023-12-07T14:35:51;5.70;90.70
3406;DHT22;10008;48.682;9.016;2023-12-07T14:38:17;4.90;90.90
3406;DHT22;10008;48.682;9.016;2023-12-07T14:40:43;6.40;91.70
3406;DHT22;10008;48.682;9.016;2023-12-07T14:43:08;4.90;91.70
3406;DHT22;10008;48.682;9.016;2023-12-07T14:45:34;4.60;91.80
3406;DHT22;10008;48.682;9.016;2023-12-07T14:48:00;4.60;92.00
3406;DHT22;10008;48.682;9.016;2023-12-07T14:50:26;4.50;92.50
3406;DHT22;10008;48.682;9.016;2023-12-07T14:52:51;4.40;92.90
3406;DHT22;10008;48.682;9.016;2023-12-07T14:55:17;5.50;93.80
3406;DHT22;10008;48.682;9.016;2023-12-07T14:57:45;4.30;93.70
3406;DHT22;10008;48.682;9.016;2023-12-07T15:00:14;5.30;93.80
3406;DHT22;10008;48.682;9.016;2023-12-07T15:02:39;4.30;93.60
3406;DHT22;10008;48.682;9.016;2023-12-07T15:05:06;4.20;94.30
3406;DHT22;10008;48.682;9.016;2023-12-07T15:07:33;4.20;95.30
3406;DHT22;10008;48.682;9.016;2023-12-07T15:09:59;4.20;95.70
3406;DHT22;10008;48.682;9.016;2023-12-07T15:12:25;4.50;95.50
3406;DHT22;10008;48.682;9.016;2023-12-07T15:14:51;5.30;95.50
3406;DHT22;10008;48.682;9.016;2023-12-07T15:17:16;3.90;95.50
3406;DHT22;10008;48.682;9.016;2023-12-07T15:19:42;5.40;95.70
3406;DHT22;10008;48.682;9.016;2023-12-07T15:22:11;3.60;96.00
3406;DHT22;10008;48.682;9.016;2023-12-07T15:24:37;3.60;96.30
3406;DHT22;10008;48.682;9.016;2023-12-07T15:27:03;4.30;96.50
3406;DHT22;10008;48.682;9.016;2023-12-07T15:29:29;3.50;96.00
3406;DHT22;10008;48.682;9.016;2023-12-07T15:31:55;3.40;95.70
3406;DHT22;10008;48.682;9.016;2023-12-07T15:34:21;3.30;95.80
3406;DHT22;10008;48.682;9.016;2023-12-07T15:36:47;5.50;97.20
3406;DHT22;10008;48.682;9.016;2023-12-07T15:39:12;3.30;97.90
3406;DHT22;10008;48.682;9.016;2023-12-07T15:41:38;3.20;96.80
3406;DHT22;10008;48.682;9.016;2023-12-07T15:44:04;3.10;96.90
3406;DHT22;10008;48.682;9.016;2023-12-07T15:46:30;3.10;96.70
3406;DHT22;10008;48.682;9.016;2023-12-07T15:48:55;5.60;99.20
3406;DHT22;10008;48.682;9.016;2023-12-07T15:51:21;3.10;97.40
3406;DHT22;10008;48.682;9.016;2023-12-07T15:53:47;3.50;97.20
3406;DHT22;10008;48.682;9.016;2023-12-07T15:56:13;2.80;98.30
3406;DHT22;10008;48.682;9.016;2023-12-07T15:58:38;2.70;98.70
3406;DHT22;10008;48.682;9.016;2023-12-07T16:01:04;4.70;99.90
3406;DHT22;10008;48.682;9.016;2023-12-07T16:03:30;2.60;99.20